sensor_id;sensor_type;location;lat;lon;timestamp;pressure;altitude;pressure_sealevel;temperature
18161;BMP280;9205;52.032;4.314;2022-12-18T00:00:08;102751.16;;;0.15
18161;BMP280;9205;52.032;4.314;2022-12-18T00:02:43;102752.31;;;0.21
18161;BMP280;9205;52.032;4.314;2022-12-18T00:05:11;102748.25;;;0.23
18161;BMP280;9205;52.032;4.314;2022-12-18T00:07:38;102758.88;;;0.19
18161;BMP280;9205;52.032;4.314;2022-12-18T00:10:07;102752.66;;;0.11
18161;BMP280;9205;52.032;4.314;2022-12-18T00:12:34;102755.22;;;0.13
18161;BMP280;9205;52.032;4.314;2022-12-18T00:15:05;102757.66;;;0.11
18161;BMP280;9205;52.032;4.314;2022-12-18T00:17:33;102759.44;;;0.14
18161;BMP280;9205;52.032;4.314;2022-12-18T00:20:01;102763.09;;;0.04
18161;BMP280;9205;52.032;4.314;2022-12-18T00:22:28;102759.34;;;0.12
18161;BMP280;9205;52.032;4.314;2022-12-18T00:24:57;102761.94;;;0.14
18161;BMP280;9205;52.032;4.314;2022-12-18T00:27:24;102753.50;;;0.12
18161;BMP280;9205;52.032;4.314;2022-12-18T00:29:52;102748.97;;;0.05
18161;BMP280;9205;52.032;4.314;2022-12-18T00:32:21;102758.19;;;0.06
18161;BMP280;9205;52.032;4.314;2022-12-18T00:34:48;102743.25;;;0.23
18161;BMP280;9205;52.032;4.314;2022-12-18T00:37:15;102757.97;;;0.17
18161;BMP280;9205;52.032;4.314;2022-12-18T00:39:43;102751.56;;;0.06
18161;BMP280;9205;52.032;4.314;2022-12-18T00:42:10;102762.09;;;0.01
18161;BMP280;9205;52.032;4.314;2022-12-18T00:44:55;102763.34;;;0.09
18161;BMP280;9205;52.032;4.314;2022-12-18T00:47:24;102758.81;;;0.02
18161;BMP280;9205;52.032;4.314;2022-12-18T00:49:51;102762.19;;;0.02
18161;BMP280;9205;52.032;4.314;2022-12-18T00:52:19;102766.31;;;0.02
18161;BMP280;9205;52.032;4.314;2022-12-18T00:54:46;102769.03;;;0.06
18161;BMP280;9205;52.032;4.314;2022-12-18T00:57:13;102768.66;;;0.15
18161;BMP280;9205;52.032;4.314;2022-12-18T00:59:42;102766.22;;;0.16
18161;BMP280;9205;52.032;4.314;2022-12-18T01:02:10;102774.97;;;0.24
18161;BMP280;9205;52.032;4.314;2022-12-18T01:04:39;102765.69;;;0.22
18161;BMP280;9205;52.032;4.314;2022-12-18T01:07:07;102755.53;;;0.19
18161;BMP280;9205;52.032;4.314;2022-12-18T01:09:34;102766.94;;;0.14
18161;BMP280;9205;52.032;4.314;2022-12-18T01:12:02;102772.47;;;0.24
18161;BMP280;9205;52.032;4.314;2022-12-18T01:14:29;102772.31;;;0.21
18161;BMP280;9205;52.032;4.314;2022-12-18T01:16:58;102782.09;;;0.17
18161;BMP280;9205;52.032;4.314;2022-12-18T01:19:28;102769.69;;;0.18
18161;BMP280;9205;52.032;4.314;2022-12-18T01:21:57;102772.56;;;0.10
18161;BMP280;9205;52.032;4.314;2022-12-18T01:24:25;102773.75;;;0.16
18161;BMP280;9205;52.032;4.314;2022-12-18T01:26:52;102767.56;;;0.10
18161;BMP280;9205;52.032;4.314;2022-12-18T01:29:20;102775.47;;;0.01
18161;BMP280;9205;52.032;4.314;2022-12-18T01:31:47;102776.00;;;-0.04
18161;BMP280;9205;52.032;4.314;2022-12-18T01:34:14;102774.44;;;-0.02
18161;BMP280;9205;52.032;4.314;2022-12-18T01:36:42;102775.69;;;-0.10
18161;BMP280;9205;52.032;4.314;2022-12-18T01:39:14;102773.81;;;-0.14
18161;BMP280;9205;52.032;4.314;2022-12-18T01:41:42;102769.97;;;-0.23
18161;BMP280;9205;52.032;4.314;2022-12-18T01:45:01;102791.00;;;-0.20
18161;BMP280;9205;52.032;4.314;2022-12-18T01:47:39;102788.09;;;-0.11
18161;BMP280;9205;52.032;4.314;2022-12-18T01:50:11;102794.13;;;-0.08
18161;BMP280;9205;52.032;4.314;2022-12-18T01:52:42;102802.25;;;-0.12
18161;BMP280;9205;52.032;4.314;2022-12-18T01:55:12;102800.97;;;-0.20
18161;BMP280;9205;52.032;4.314;2022-12-18T01:57:41;102794.19;;;-0.22
18161;BMP280;9205;52.032;4.314;2022-12-18T02:00:14;102804.38;;;-0.19
18161;BMP280;9205;52.032;4.314;2022-12-18T02:02:44;102809.50;;;-0.16
18161;BMP280;9205;52.032;4.314;2022-12-18T02:05:18;102800.91;;;-0.21
18161;BMP280;9205;52.032;4.314;2022-12-18T02:07:58;102798.91;;;-0.12
18161;BMP280;9205;52.032;4.314;2022-12-18T02:10:45;102796.47;;;-0.11
18161;BMP280;9205;52.032;4.314;2022-12-18T02:13:20;102788.97;;;-0.11
18161;BMP280;9205;52.032;4.314;2022-12-18T02:15:59;102788.56;;;-0.18
18161;BMP280;9205;52.032;4.314;2022-12-18T02:18:33;102793.56;;;-0.18
18161;BMP280;9205;52.032;4.314;2022-12-18T02:21:12;102800.69;;;-0.10
18161;BMP280;9205;52.032;4.314;2022-12-18T02:23:56;102802.72;;;-0.19
18161;BMP280;9205;52.032;4.314;2022-12-18T02:26:36;102797.72;;;-0.19
18161;BMP280;9205;52.032;4.314;2022-12-18T02:29:11;102796.75;;;-0.21
18161;BMP280;9205;52.032;4.314;2022-12-18T02:31:45;102795.81;;;-0.23
18161;BMP280;9205;52.032;4.314;2022-12-18T02:34:18;102795.03;;;-0.22
18161;BMP280;9205;52.032;4.314;2022-12-18T02:36:48;102785.63;;;-0.27
18161;BMP280;9205;52.032;4.314;2022-12-18T02:39:19;102780.63;;;-0.27
18161;BMP280;9205;52.032;4.314;2022-12-18T02:42:03;102769.13;;;-0.40
18161;BMP280;9205;52.032;4.314;2022-12-18T02:44:34;102767.53;;;-0.38
18161;BMP280;9205;52.032;4.314;2022-12-18T02:47:04;102761.94;;;-0.34
18161;BMP280;9205;52.032;4.314;2022-12-18T02:49:41;102761.16;;;-0.33
18161;BMP280;9205;52.032;4.314;2022-12-18T02:52:38;102759.97;;;-0.39
18161;BMP280;9205;52.032;4.314;2022-12-18T02:55:27;102759.13;;;-0.40
18161;BMP280;9205;52.032;4.314;2022-12-18T02:58:11;102752.53;;;-0.38
18161;BMP280;9205;52.032;4.314;2022-12-18T03:00:49;102750.94;;;-0.37
18161;BMP280;9205;52.032;4.314;2022-12-18T03:03:29;102744.28;;;-0.37
18161;BMP280;9205;52.032;4.314;2022-12-18T03:06:05;102736.97;;;-0.34
18161;BMP280;9205;52.032;4.314;2022-12-18T03:08:41;102728.44;;;-0.37
18161;BMP280;9205;52.032;4.314;2022-12-18T03:11:12;102731.66;;;-0.40
18161;BMP280;9205;52.032;4.314;2022-12-18T03:13:47;102740.53;;;-0.45
18161;BMP280;9205;52.032;4.314;2022-12-18T03:16:24;102731.16;;;-0.49
18161;BMP280;9205;52.032;4.314;2022-12-18T03:18:58;102733.25;;;-0.56
18161;BMP280;9205;52.032;4.314;2022-12-18T03:21:35;102742.53;;;-0.54
18161;BMP280;9205;52.032;4.314;2022-12-18T03:24:07;102722.88;;;-0.64
18161;BMP280;9205;52.032;4.314;2022-12-18T03:26:43;102731.75;;;-0.69
18161;BMP280;9205;52.032;4.314;2022-12-18T03:29:20;102729.34;;;-0.67
18161;BMP280;9205;52.032;4.314;2022-12-18T03:31:55;102723.59;;;-0.66
18161;BMP280;9205;52.032;4.314;2022-12-18T03:34:31;102719.88;;;-0.73
18161;BMP280;9205;52.032;4.314;2022-12-18T03:37:03;102732.75;;;-0.65
18161;BMP280;9205;52.032;4.314;2022-12-18T03:39:32;102727.69;;;-0.67
18161;BMP280;9205;52.032;4.314;2022-12-18T03:42:10;102729.34;;;-0.67
18161;BMP280;9205;52.032;4.314;2022-12-18T03:44:55;102732.97;;;-0.77
18161;BMP280;9205;52.032;4.314;2022-12-18T03:47:30;102734.56;;;-0.78
18161;BMP280;9205;52.032;4.314;2022-12-18T03:50:12;102734.56;;;-0.78
18161;BMP280;9205;52.032;4.314;2022-12-18T03:52:50;102741.53;;;-0.87
18161;BMP280;9205;52.032;4.314;2022-12-18T03:55:22;102745.84;;;-0.85
18161;BMP280;9205;52.032;4.314;2022-12-18T03:57:57;102743.13;;;-0.74
18161;BMP280;9205;52.032;4.314;2022-12-18T04:00:33;102743.22;;;-0.72
18161;BMP280;9205;52.032;4.314;2022-12-18T04:03:08;102734.09;;;-0.72
18161;BMP280;9205;52.032;4.314;2022-12-18T04:05:45;102729.69;;;-0.76
18161;BMP280;9205;52.032;4.314;2022-12-18T04:08:18;102721.88;;;-0.67
18161;BMP280;9205;52.032;4.314;2022-12-18T04:10:55;102723.34;;;-0.71
18161;BMP280;9205;52.032;4.314;2022-12-18T04:13:24;102725.44;;;-0.62
18161;BMP280;9205;52.032;4.314;2022-12-18T04:15:53;102733.19;;;-0.58
18161;BMP280;9205;52.032;4.314;2022-12-18T04:18:22;102730.69;;;-0.58
18161;BMP280;9205;52.032;4.314;2022-12-18T04:20:50;102726.47;;;-0.59
18161;BMP280;9205;52.032;4.314;2022-12-18T04:23:18;102725.38;;;-0.64
18161;BMP280;9205;52.032;4.314;2022-12-18T04:25:47;102736.84;;;-0.67
18161;BMP280;9205;52.032;4.314;2022-12-18T04:28:21;102730.66;;;-0.74
18161;BMP280;9205;52.032;4.314;2022-12-18T04:30:49;102733.22;;;-0.72
18161;BMP280;9205;52.032;4.314;2022-12-18T04:33:18;102738.91;;;-0.75
18161;BMP280;9205;52.032;4.314;2022-12-18T04:35:46;102744.53;;;-0.78
18161;BMP280;9205;52.032;4.314;2022-12-18T04:38:14;102739.53;;;-0.78
18161;BMP280;9205;52.032;4.314;2022-12-18T04:40:43;102747.03;;;-0.78
18161;BMP280;9205;52.032;4.314;2022-12-18T04:43:19;102749.53;;;-0.78
18161;BMP280;9205;52.032;4.314;2022-12-18T04:45:47;102736.03;;;-0.82
18161;BMP280;9205;52.032;4.314;2022-12-18T04:48:14;102746.00;;;-0.82
18161;BMP280;9205;52.032;4.314;2022-12-18T04:50:43;102738.88;;;-0.90
18161;BMP280;9205;52.032;4.314;2022-12-18T04:53:11;102738.72;;;-0.93
18161;BMP280;9205;52.032;4.314;2022-12-18T04:55:40;102735.72;;;-1.02
18161;BMP280;9205;52.032;4.314;2022-12-18T04:58:07;102735.56;;;-1.05
18161;BMP280;9205;52.032;4.314;2022-12-18T05:00:34;102734.44;;;-1.10
18161;BMP280;9205;52.032;4.314;2022-12-18T05:03:02;102728.50;;;-1.12
18161;BMP280;9205;52.032;4.314;2022-12-18T05:05:30;102737.72;;;-1.11
18161;BMP280;9205;52.032;4.314;2022-12-18T05:07:59;102735.75;;;-1.17
18161;BMP280;9205;52.032;4.314;2022-12-18T05:10:29;102738.31;;;-1.15
18161;BMP280;9205;52.032;4.314;2022-12-18T05:12:59;102724.75;;;-1.20
18161;BMP280;9205;52.032;4.314;2022-12-18T05:15:28;102729.41;;;-1.26
18161;BMP280;9205;52.032;4.314;2022-12-18T05:17:58;102720.81;;;-1.31
18161;BMP280;9205;52.032;4.314;2022-12-18T05:20:27;102736.00;;;-1.27
18161;BMP280;9205;52.032;4.314;2022-12-18T05:22:57;102735.59;;;-1.34
18161;BMP280;9205;52.032;4.314;2022-12-18T05:25:25;102723.63;;;-1.40
18161;BMP280;9205;52.032;4.314;2022-12-18T05:27:52;102718.31;;;-1.46
18161;BMP280;9205;52.032;4.314;2022-12-18T05:30:20;102718.81;;;-1.51
18161;BMP280;9205;52.032;4.314;2022-12-18T05:32:48;102726.13;;;-1.54
18161;BMP280;9205;52.032;4.314;2022-12-18T05:35:15;102721.84;;;-1.57
18161;BMP280;9205;52.032;4.314;2022-12-18T05:37:43;102725.28;;;-1.55
18161;BMP280;9205;52.032;4.314;2022-12-18T05:40:13;102721.06;;;-1.56
18161;BMP280;9205;52.032;4.314;2022-12-18T05:42:40;102715.66;;;-1.63
18161;BMP280;9205;52.032;4.314;2022-12-18T05:45:08;102718.16;;;-1.63
18161;BMP280;9205;52.032;4.314;2022-12-18T05:47:36;102724.06;;;-1.61
18161;BMP280;9205;52.032;4.314;2022-12-18T05:50:05;102718.16;;;-1.63
18161;BMP280;9205;52.032;4.314;2022-12-18T05:52:32;102713.75;;;-1.67
18161;BMP280;9205;52.032;4.314;2022-12-18T05:55:00;102715.28;;;-1.69
18161;BMP280;9205;52.032;4.314;2022-12-18T05:57:29;102725.44;;;-1.66
18161;BMP280;9205;52.032;4.314;2022-12-18T05:59:57;102724.41;;;-1.69
18161;BMP280;9205;52.032;4.314;2022-12-18T06:02:24;102711.78;;;-1.72
18161;BMP280;9205;52.032;4.314;2022-12-18T06:04:52;102700.00;;;-1.75
18161;BMP280;9205;52.032;4.314;2022-12-18T06:07:19;102703.25;;;-1.76
18161;BMP280;9205;52.032;4.314;2022-12-18T06:09:47;102698.28;;;-1.76
18161;BMP280;9205;52.032;4.314;2022-12-18T06:12:17;102689.06;;;-1.77
18161;BMP280;9205;52.032;4.314;2022-12-18T06:14:46;102686.59;;;-1.77
18161;BMP280;9205;52.032;4.314;2022-12-18T06:17:14;102677.63;;;-1.73
18161;BMP280;9205;52.032;4.314;2022-12-18T06:19:41;102674.38;;;-1.72
18161;BMP280;9205;52.032;4.314;2022-12-18T06:22:08;102687.97;;;-1.67
18161;BMP280;9205;52.032;4.314;2022-12-18T06:24:36;102678.00;;;-1.67
18161;BMP280;9205;52.032;4.314;2022-12-18T06:27:04;102677.13;;;-1.68
18161;BMP280;9205;52.032;4.314;2022-12-18T06:29:32;102677.75;;;-1.72
18161;BMP280;9205;52.032;4.314;2022-12-18T06:32:04;102667.53;;;-1.76
18161;BMP280;9205;52.032;4.314;2022-12-18T06:34:36;102664.25;;;-1.75
18161;BMP280;9205;52.032;4.314;2022-12-18T06:37:04;102678.34;;;-1.76
18161;BMP280;9205;52.032;4.314;2022-12-18T06:39:31;102680.25;;;-1.72
18161;BMP280;9205;52.032;4.314;2022-12-18T06:41:59;102667.66;;;-1.73
18161;BMP280;9205;52.032;4.314;2022-12-18T06:44:27;102664.25;;;-1.75
18161;BMP280;9205;52.032;4.314;2022-12-18T06:46:55;102650.66;;;-1.80
18161;BMP280;9205;52.032;4.314;2022-12-18T06:49:25;102644.84;;;-1.81
18161;BMP280;9205;52.032;4.314;2022-12-18T06:51:52;102654.19;;;-1.77
18161;BMP280;9205;52.032;4.314;2022-12-18T06:54:20;102644.84;;;-1.81
18161;BMP280;9205;52.032;4.314;2022-12-18T06:56:48;102646.56;;;-1.80
18161;BMP280;9205;52.032;4.314;2022-12-18T06:59:16;102621.19;;;-1.87
18161;BMP280;9205;52.032;4.314;2022-12-18T07:01:44;102626.53;;;-1.81
18161;BMP280;9205;52.032;4.314;2022-12-18T07:04:11;102626.69;;;-1.78
18161;BMP280;9205;52.032;4.314;2022-12-18T07:06:41;102630.13;;;-1.76
18161;BMP280;9205;52.032;4.314;2022-12-18T07:09:09;102613.38;;;-1.79
18161;BMP280;9205;52.032;4.314;2022-12-18T07:11:39;102610.91;;;-1.79
18161;BMP280;9205;52.032;4.314;2022-12-18T07:14:06;102605.81;;;-1.80
18161;BMP280;9205;52.032;4.314;2022-12-18T07:16:34;102585.59;;;-1.85
18161;BMP280;9205;52.032;4.314;2022-12-18T07:19:01;102574.41;;;-1.93
18161;BMP280;9205;52.032;4.314;2022-12-18T07:21:29;102565.78;;;-1.98
18161;BMP280;9205;52.032;4.314;2022-12-18T07:23:58;102570.00;;;-1.97
18161;BMP280;9205;52.032;4.314;2022-12-18T07:26:27;102561.31;;;-2.03
18161;BMP280;9205;52.032;4.314;2022-12-18T07:28:57;102563.28;;;-1.98
18161;BMP280;9205;52.032;4.314;2022-12-18T07:31:25;102567.25;;;-2.01
18161;BMP280;9205;52.032;4.314;2022-12-18T07:33:53;102575.22;;;-2.07
18161;BMP280;9205;52.032;4.314;2022-12-18T07:36:21;102574.06;;;-2.13
18161;BMP280;9205;52.032;4.314;2022-12-18T07:38:49;102567.69;;;-2.08
18161;BMP280;9205;52.032;4.314;2022-12-18T07:41:20;102561.84;;;-2.09
18161;BMP280;9205;52.032;4.314;2022-12-18T07:43:49;102578.69;;;-2.05
18161;BMP280;9205;52.032;4.314;2022-12-18T07:46:17;102587.25;;;-2.00
18161;BMP280;9205;52.032;4.314;2022-12-18T07:48:45;102581.88;;;-1.93
18161;BMP280;9205;52.032;4.314;2022-12-18T07:51:13;102573.59;;;-1.92
18161;BMP280;9205;52.032;4.314;2022-12-18T07:53:44;102572.22;;;-1.87
18161;BMP280;9205;52.032;4.314;2022-12-18T07:56:13;102563.38;;;-1.82
18161;BMP280;9205;52.032;4.314;2022-12-18T07:58:42;102558.06;;;-1.88
18161;BMP280;9205;52.032;4.314;2022-12-18T08:01:14;102568.53;;;-1.79
18161;BMP280;9205;52.032;4.314;2022-12-18T08:03:43;102563.94;;;-1.71
18161;BMP280;9205;52.032;4.314;2022-12-18T08:06:11;102561.78;;;-1.65
18161;BMP280;9205;52.032;4.314;2022-12-18T08:08:38;102554.22;;;-1.67
18161;BMP280;9205;52.032;4.314;2022-12-18T08:11:07;102565.16;;;-1.65
18161;BMP280;9205;52.032;4.314;2022-12-18T08:13:34;102550.25;;;-1.63
18161;BMP280;9205;52.032;4.314;2022-12-18T08:16:06;102551.66;;;-1.68
18161;BMP280;9205;52.032;4.314;2022-12-18T08:18:35;102548.91;;;-1.73
18161;BMP280;9205;52.032;4.314;2022-12-18T08:21:09;102559.06;;;-1.70
18161;BMP280;9205;52.032;4.314;2022-12-18T08:23:38;102554.16;;;-1.68
18161;BMP280;9205;52.032;4.314;2022-12-18T08:26:05;102548.91;;;-1.73
18161;BMP280;9205;52.032;4.314;2022-12-18T08:28:33;102549.44;;;-1.78
18161;BMP280;9205;52.032;4.314;2022-12-18T08:31:02;102558.88;;;-1.73
18161;BMP280;9205;52.032;4.314;2022-12-18T08:33:30;102578.19;;;-1.69
18161;BMP280;9205;52.032;4.314;2022-12-18T08:35:59;102575.56;;;-1.72
18161;BMP280;9205;52.032;4.314;2022-12-18T08:38:27;102579.78;;;-1.71
18161;BMP280;9205;52.032;4.314;2022-12-18T08:40:59;102592.56;;;-1.65
18161;BMP280;9205;52.032;4.314;2022-12-18T08:43:27;102599.41;;;-1.61
18161;BMP280;9205;52.032;4.314;2022-12-18T08:46:18;102617.03;;;-1.58
18161;BMP280;9205;52.032;4.314;2022-12-18T08:48:45;102619.53;;;-1.58
18161;BMP280;9205;52.032;4.314;2022-12-18T08:51:18;102620.03;;;-1.49
18161;BMP280;9205;52.032;4.314;2022-12-18T08:53:46;102623.81;;;-1.41
18161;BMP280;9205;52.032;4.314;2022-12-18T08:56:16;102614.94;;;-1.36
18161;BMP280;9205;52.032;4.314;2022-12-18T08:58:46;102616.66;;;-1.35
18161;BMP280;9205;52.032;4.314;2022-12-18T09:01:20;102601.72;;;-1.19
18161;BMP280;9205;52.032;4.314;2022-12-18T09:03:48;102597.34;;;-1.23
18161;BMP280;9205;52.032;4.314;2022-12-18T09:06:18;102589.19;;;-1.21
18161;BMP280;9205;52.032;4.314;2022-12-18T09:08:49;102578.19;;;-1.24
18161;BMP280;9205;52.032;4.314;2022-12-18T09:11:23;102573.81;;;-1.28
18161;BMP280;9205;52.032;4.314;2022-12-18T09:13:54;102571.25;;;-1.30
18161;BMP280;9205;52.032;4.314;2022-12-18T09:16:26;102558.00;;;-1.29
18161;BMP280;9205;52.032;4.314;2022-12-18T09:18:55;102557.53;;;-1.22
18161;BMP280;9205;52.032;4.314;2022-12-18T09:21:27;102548.94;;;-1.27
18161;BMP280;9205;52.032;4.314;2022-12-18T09:23:56;102555.50;;;-1.29
18161;BMP280;9205;52.032;4.314;2022-12-18T09:26:26;102554.94;;;-1.23
18161;BMP280;9205;52.032;4.314;2022-12-18T09:28:54;102543.09;;;-1.27
18161;BMP280;9205;52.032;4.314;2022-12-18T09:31:24;102541.69;;;-1.22
18161;BMP280;9205;52.032;4.314;2022-12-18T09:33:52;102549.09;;;-1.24
18161;BMP280;9205;52.032;4.314;2022-12-18T09:36:21;102552.00;;;-1.16
18161;BMP280;9205;52.032;4.314;2022-12-18T09:38:49;102541.22;;;-1.15
18161;BMP280;9205;52.032;4.314;2022-12-18T09:41:39;102559.56;;;-1.15
18161;BMP280;9205;52.032;4.314;2022-12-18T09:44:20;102576.56;;;-1.08
18161;BMP280;9205;52.032;4.314;2022-12-18T09:47:00;102564.88;;;-1.09
18161;BMP280;9205;52.032;4.314;2022-12-18T09:49:33;102570.50;;;-0.97
18161;BMP280;9205;52.032;4.314;2022-12-18T09:52:13;102564.03;;;-0.93
18161;BMP280;9205;52.032;4.314;2022-12-18T09:54:49;102555.31;;;-0.85
18161;BMP280;9205;52.032;4.314;2022-12-18T09:57:24;102547.19;;;-0.81
18161;BMP280;9205;52.032;4.314;2022-12-18T09:59:59;102544.91;;;-0.77
18161;BMP280;9205;52.032;4.314;2022-12-18T10:02:39;102544.13;;;-0.76
18161;BMP280;9205;52.032;4.314;2022-12-18T10:05:11;102538.50;;;-0.72
18161;BMP280;9205;52.032;4.314;2022-12-18T10:07:55;102534.22;;;-0.75
18161;BMP280;9205;52.032;4.314;2022-12-18T10:10:38;102532.66;;;-0.73
18161;BMP280;9205;52.032;4.314;2022-12-18T10:13:21;102515.25;;;-0.71
18161;BMP280;9205;52.032;4.314;2022-12-18T10:16:06;102525.16;;;-0.57
18161;BMP280;9205;52.032;4.314;2022-12-18T10:19:12;102514.38;;;-0.56
18161;BMP280;9205;52.032;4.314;2022-12-18T10:21:52;102517.94;;;-0.51
18161;BMP280;9205;52.032;4.314;2022-12-18T10:24:31;102504.28;;;-0.57
18161;BMP280;9205;52.032;4.314;2022-12-18T10:27:14;102507.19;;;-0.50
18161;BMP280;9205;52.032;4.314;2022-12-18T10:29:46;102495.47;;;-0.51
18161;BMP280;9205;52.032;4.314;2022-12-18T10:32:20;102493.69;;;-0.53
18161;BMP280;9205;52.032;4.314;2022-12-18T10:34:58;102502.03;;;-0.53
18161;BMP280;9205;52.032;4.314;2022-12-18T10:37:29;102510.47;;;-0.51
18161;BMP280;9205;52.032;4.314;2022-12-18T10:40:48;102508.91;;;-0.49
18161;BMP280;9205;52.032;4.314;2022-12-18T10:43:22;102519.50;;;-0.53
18161;BMP280;9205;52.032;4.314;2022-12-18T10:46:11;102504.41;;;-0.38
18161;BMP280;9205;52.032;4.314;2022-12-18T10:48:50;102493.19;;;-0.46
18161;BMP280;9205;52.032;4.314;2022-12-18T10:51:28;102495.22;;;-0.39
18161;BMP280;9205;52.032;4.314;2022-12-18T10:54:00;102488.78;;;-0.34
18161;BMP280;9205;52.032;4.314;2022-12-18T10:56:34;102499.59;;;-0.35
18161;BMP280;9205;52.032;4.314;2022-12-18T10:59:08;102507.28;;;-0.31
18161;BMP280;9205;52.032;4.314;2022-12-18T11:04:51;102477.94;;;-0.17
18161;BMP280;9205;52.032;4.314;2022-12-18T11:07:22;102467.91;;;-0.19
18161;BMP280;9205;52.032;4.314;2022-12-18T11:10:01;102472.25;;;-0.15
18161;BMP280;9205;52.032;4.314;2022-12-18T11:12:29;102469.59;;;-0.01
18161;BMP280;9205;52.032;4.314;2022-12-18T11:15:01;102476.25;;;-0.01
18161;BMP280;9205;52.032;4.314;2022-12-18T11:17:48;102489.66;;;0.01
18161;BMP280;9205;52.032;4.314;2022-12-18T11:20:31;102474.88;;;0.05
18161;BMP280;9205;52.032;4.314;2022-12-18T11:23:11;102471.53;;;0.05
18161;BMP280;9205;52.032;4.314;2022-12-18T11:25:50;102455.81;;;0.07
18161;BMP280;9205;52.032;4.314;2022-12-18T11:29:07;102454.16;;;0.08
18161;BMP280;9205;52.032;4.314;2022-12-18T11:31:51;102455.09;;;0.10
18161;BMP280;9205;52.032;4.314;2022-12-18T11:34:25;102461.75;;;0.09
18161;BMP280;9205;52.032;4.314;2022-12-18T11:37:15;102445.25;;;0.13
18161;BMP280;9205;52.032;4.314;2022-12-18T11:39:52;102421.50;;;0.22
18161;BMP280;9205;52.032;4.314;2022-12-18T11:42:30;102415.00;;;0.26
18161;BMP280;9205;52.032;4.314;2022-12-18T11:45:27;102399.06;;;0.24
18161;BMP280;9205;52.032;4.314;2022-12-18T11:48:17;102396.78;;;0.28
18161;BMP280;9205;52.032;4.314;2022-12-18T11:51:05;102396.66;;;0.25
18161;BMP280;9205;52.032;4.314;2022-12-18T11:54:18;102404.06;;;0.24
18161;BMP280;9205;52.032;4.314;2022-12-18T11:57:30;102400.94;;;0.28
18161;BMP280;9205;52.032;4.314;2022-12-18T12:00:18;102383.44;;;0.28
18161;BMP280;9205;52.032;4.314;2022-12-18T12:03:38;102379.25;;;0.28
18161;BMP280;9205;52.032;4.314;2022-12-18T12:06:17;102371.31;;;0.37
18161;BMP280;9205;52.032;4.314;2022-12-18T12:09:11;102382.16;;;0.37
18161;BMP280;9205;52.032;4.314;2022-12-18T12:12:05;102366.19;;;0.34
18161;BMP280;9205;52.032;4.314;2022-12-18T12:14:53;102370.94;;;0.28
18161;BMP280;9205;52.032;4.314;2022-12-18T12:17:35;102368.94;;;0.40
18161;BMP280;9205;52.032;4.314;2022-12-18T12:20:15;102370.91;;;0.47
18161;BMP280;9205;52.032;4.314;2022-12-18T12:22:56;102354.06;;;0.43
18161;BMP280;9205;52.032;4.314;2022-12-18T12:25:37;102354.72;;;0.39
18161;BMP280;9205;52.032;4.314;2022-12-18T12:28:20;102355.78;;;0.44
18161;BMP280;9205;52.032;4.314;2022-12-18T12:31:07;102347.38;;;0.42
18161;BMP280;9205;52.032;4.314;2022-12-18T12:33:55;102351.81;;;0.49
18161;BMP280;9205;52.032;4.314;2022-12-18T12:36:36;102346.81;;;0.49
18161;BMP280;9205;52.032;4.314;2022-12-18T12:39:13;102360.31;;;0.52
18161;BMP280;9205;52.032;4.314;2022-12-18T12:41:45;102344.56;;;0.55
18161;BMP280;9205;52.032;4.314;2022-12-18T12:44:32;102332.47;;;0.64
18161;BMP280;9205;52.032;4.314;2022-12-18T12:47:15;102333.53;;;0.69
18161;BMP280;9205;52.032;4.314;2022-12-18T12:49:46;102334.38;;;0.69
18161;BMP280;9205;52.032;4.314;2022-12-18T12:52:31;102328.09;;;0.78
18161;BMP280;9205;52.032;4.314;2022-12-18T12:55:05;102325.66;;;0.80
18161;BMP280;9205;52.032;4.314;2022-12-18T12:57:45;102311.34;;;0.77
18161;BMP280;9205;52.032;4.314;2022-12-18T13:00:35;102297.88;;;0.74
18161;BMP280;9205;52.032;4.314;2022-12-18T13:03:15;102298.78;;;0.76
18161;BMP280;9205;52.032;4.314;2022-12-18T13:06:14;102296.72;;;0.86
18161;BMP280;9205;52.032;4.314;2022-12-18T13:08:56;102290.00;;;0.85
18161;BMP280;9205;52.032;4.314;2022-12-18T13:11:40;102292.44;;;0.84
18161;BMP280;9205;52.032;4.314;2022-12-18T13:14:35;102289.47;;;0.92
18161;BMP280;9205;52.032;4.314;2022-12-18T13:17:29;102279.00;;;0.82
18161;BMP280;9205;52.032;4.314;2022-12-18T13:20:15;102281.03;;;0.90
18161;BMP280;9205;52.032;4.314;2022-12-18T13:22:48;102263.63;;;0.93
18161;BMP280;9205;52.032;4.314;2022-12-18T13:25:36;102264.00;;;1.02
18161;BMP280;9205;52.032;4.314;2022-12-18T13:28:11;102257.53;;;1.07
18161;BMP280;9205;52.032;4.314;2022-12-18T13:30:56;102252.53;;;1.07
18161;BMP280;9205;52.032;4.314;2022-12-18T13:33:49;102245.81;;;1.06
18161;BMP280;9205;52.032;4.314;2022-12-18T13:36:34;102235.63;;;1.02
18161;BMP280;9205;52.032;4.314;2022-12-18T13:39:34;102233.84;;;0.99
18161;BMP280;9205;52.032;4.314;2022-12-18T13:42:41;102236.47;;;1.02
18161;BMP280;9205;52.032;4.314;2022-12-18T13:45:41;102237.44;;;1.06
18161;BMP280;9205;52.032;4.314;2022-12-18T13:48:23;102220.03;;;1.09
18161;BMP280;9205;52.032;4.314;2022-12-18T13:51:27;102221.00;;;1.12
18161;BMP280;9205;52.032;4.314;2022-12-18T13:54:52;102207.91;;;1.19
18161;BMP280;9205;52.032;4.314;2022-12-18T13:57:36;102209.75;;;1.23
18161;BMP280;9205;52.032;4.314;2022-12-18T14:00:50;102198.81;;;1.21
18161;BMP280;9205;52.032;4.314;2022-12-18T14:03:30;102205.75;;;1.28
18161;BMP280;9205;52.032;4.314;2022-12-18T14:06:08;102199.00;;;1.26
18161;BMP280;9205;52.032;4.314;2022-12-18T14:08:39;102193.13;;;1.25
18161;BMP280;9205;52.032;4.314;2022-12-18T14:11:21;102199.03;;;1.27
18161;BMP280;9205;52.032;4.314;2022-12-18T14:13:52;102180.38;;;1.19
18161;BMP280;9205;52.032;4.314;2022-12-18T14:16:37;102179.94;;;1.29
18161;BMP280;9205;52.032;4.314;2022-12-18T14:19:17;102189.16;;;1.30
18161;BMP280;9205;52.032;4.314;2022-12-18T14:22:19;102182.31;;;1.26
18161;BMP280;9205;52.032;4.314;2022-12-18T14:25:14;102167.41;;;1.29
18161;BMP280;9205;52.032;4.314;2022-12-18T14:32:10;102162.31;;;1.28
18161;BMP280;9205;52.032;4.314;2022-12-18T14:34:42;102152.31;;;1.28
18161;BMP280;9205;52.032;4.314;2022-12-18T14:37:10;102142.69;;;1.38
18161;BMP280;9205;52.032;4.314;2022-12-18T14:39:44;102142.41;;;1.31
18161;BMP280;9205;52.032;4.314;2022-12-18T14:42:19;102132.38;;;1.31
18161;BMP280;9205;52.032;4.314;2022-12-18T14:44:49;102137.44;;;1.32
18161;BMP280;9205;52.032;4.314;2022-12-18T14:47:21;102140.75;;;1.31
18161;BMP280;9205;52.032;4.314;2022-12-18T14:50:03;102143.81;;;1.24
18161;BMP280;9205;52.032;4.314;2022-12-18T14:52:33;102137.44;;;1.32
18161;BMP280;9205;52.032;4.314;2022-12-18T14:55:13;102136.59;;;1.32
18161;BMP280;9205;52.032;4.314;2022-12-18T14:57:49;102133.50;;;1.39
18161;BMP280;9205;52.032;4.314;2022-12-18T15:00:23;102128.22;;;1.31
18161;BMP280;9205;52.032;4.314;2022-12-18T15:03:21;102132.38;;;1.31
18161;BMP280;9205;52.032;4.314;2022-12-18T15:06:23;102143.38;;;1.34